Roatan, Honduras
Current Conditions -  °F | °C
As of 6:00 PM on Saturday 22 Nov 2014 (Local Time) from MHLC Reporting Station
Rain Showers Rain Showers  
Wind Chill: 77°   Ceiling: 8000
Heat Index: 79°   Visibility: 5mi
Dew Point: 70°   Wind: 0mph
Humidity: 78%   Direction: NA
Pressure: 29.88"   Gusts: NA
Location:  16.33°N, 86.52°W
Report Text: MHLC 230000Z 00000KT 8000 VCSH SCT020 BKN080 25/21 Q1012 A2989NOSIG
Loading
Personal Weather Stations






























Interactive Weather Map New forecast layout! Learn more

10-Day Weather Forecast

Advertisements
Track Severe Weather on mobile